Hauptseite
METAR-TAF:

METAR-TAF

Flughäfen :

Port Hawkesbury, Neuschottland, Kanada

Breite: 45-40N, Länge: 061-23W, Höhe: 114 m

Beobachtung

Neuester Wetterbericht von vor 5 Minuten, um 01:52 UTC
Wind 3 kt aus Ost/Südost, variierte zwischen Ost und Süd/Südost
Temperatur 17°C
Luftfeuchtigkeit 100%
Luftdruck 1014 hPa
Sichtweite: 4.8 km
Aufgelockert bewölkt in der Höhe von 300 ft
Durchbrochene Bewölkung in der Höhe von 2500 ft
feuchter Dunst

METAR: CYPD 170152Z AUTO 11003KT 100V160 3SM BR SCT003 BKN025 17/17 A2994 RMK SLP142 DENSITY ALT 600FT

Zeit: 22:57 (01:57 UTC)


TAF: fehlend

Wetterbeobachtungen und Prognosen von mehr als 4000 Flughäfen (METAR und TAF Bericht).

Die verfügbaren Stationen werden durch gelbe und rote Markierungen auf der Karte dargestellt.

Führen Sie die Maus auf sie, um den Namen der Station zu sehen.

Darauf klicken, um die Beobachtung von Wetterbeobachtungen und Prognosen zu sehen.

Um die Karte zu ändern : klicken Sie auf den grünen Tasten mit einem schwarzen Kreuz Zum Vergrößern, auf den grünen Button mit einem Gedankenstrich zu verkleinern, oder auf die grünen Pfeile für benachbarte Karten.


METAR-TAF: